sensor_id;sensor_type;location;lat;lon;timestamp;temperature;humidity
52451;DHT22;38366;53.176;6.540;2023-03-14T00:01:19;9.50;99.90
52451;DHT22;38366;53.176;6.540;2023-03-14T00:03:48;9.60;99.90
52451;DHT22;38366;53.176;6.540;2023-03-14T00:06:14;9.60;99.90
52451;DHT22;38366;53.176;6.540;2023-03-14T00:08:40;9.60;99.90
52451;DHT22;38366;53.176;6.540;2023-03-14T00:11:10;9.70;99.90
52451;DHT22;38366;53.176;6.540;2023-03-14T00:13:36;9.90;99.90
52451;DHT22;38366;53.176;6.540;2023-03-14T00:16:02;10.10;99.90
52451;DHT22;38366;53.176;6.540;2023-03-14T00:18:28;10.20;99.90
52451;DHT22;38366;53.176;6.540;2023-03-14T00:20:54;10.30;99.90
52451;DHT22;38366;53.176;6.540;2023-03-14T00:23:22;10.30;99.90
52451;DHT22;38366;53.176;6.540;2023-03-14T00:25:47;10.40;99.90
52451;DHT22;38366;53.176;6.540;2023-03-14T00:28:13;10.50;99.90
52451;DHT22;38366;53.176;6.540;2023-03-14T00:30:39;10.50;99.90
52451;DHT22;38366;53.176;6.540;2023-03-14T00:33:04;10.40;99.90
52451;DHT22;38366;53.176;6.540;2023-03-14T00:35:30;10.40;99.90
52451;DHT22;38366;53.176;6.540;2023-03-14T00:37:55;10.50;99.90
52451;DHT22;38366;53.176;6.540;2023-03-14T00:40:21;10.50;99.90
52451;DHT22;38366;53.176;6.540;2023-03-14T00:42:46;10.50;99.90
52451;DHT22;38366;53.176;6.540;2023-03-14T00:45:12;10.50;99.90
52451;DHT22;38366;53.176;6.540;2023-03-14T00:47:37;10.50;99.90
52451;DHT22;38366;53.176;6.540;2023-03-14T00:50:03;10.50;99.90
52451;DHT22;38366;53.176;6.540;2023-03-14T00:52:29;10.50;99.90
52451;DHT22;38366;53.176;6.540;2023-03-14T00:54:54;10.40;99.90
52451;DHT22;38366;53.176;6.540;2023-03-14T00:57:20;10.40;99.90
52451;DHT22;38366;53.176;6.540;2023-03-14T00:59:45;10.40;99.90
52451;DHT22;38366;53.176;6.540;2023-03-14T01:02:11;10.40;99.90
52451;DHT22;38366;53.176;6.540;2023-03-14T01:04:36;10.40;99.90
52451;DHT22;38366;53.176;6.540;2023-03-14T01:07:04;10.40;99.90
52451;DHT22;38366;53.176;6.540;2023-03-14T01:09:30;10.30;99.90
52451;DHT22;38366;53.176;6.540;2023-03-14T01:11:55;10.20;99.90
52451;DHT22;38366;53.176;6.540;2023-03-14T01:14:21;10.30;99.90
52451;DHT22;38366;53.176;6.540;2023-03-14T01:16:47;10.30;99.90
52451;DHT22;38366;53.176;6.540;2023-03-14T01:19:12;10.40;99.90
52451;DHT22;38366;53.176;6.540;2023-03-14T01:21:38;10.30;99.90
52451;DHT22;38366;53.176;6.540;2023-03-14T01:24:04;10.20;99.90
52451;DHT22;38366;53.176;6.540;2023-03-14T01:26:31;10.10;99.90
52451;DHT22;38366;53.176;6.540;2023-03-14T01:28:57;10.10;99.90
52451;DHT22;38366;53.176;6.540;2023-03-14T01:31:23;10.20;99.90
52451;DHT22;38366;53.176;6.540;2023-03-14T01:33:49;10.20;99.90
52451;DHT22;38366;53.176;6.540;2023-03-14T01:36:15;10.30;99.90
52451;DHT22;38366;53.176;6.540;2023-03-14T01:38:41;10.50;99.90
52451;DHT22;38366;53.176;6.540;2023-03-14T01:41:07;10.60;99.90
52451;DHT22;38366;53.176;6.540;2023-03-14T01:43:33;10.70;99.90
52451;DHT22;38366;53.176;6.540;2023-03-14T01:48:37;10.60;99.90
52451;DHT22;38366;53.176;6.540;2023-03-14T01:51:04;10.60;99.90
52451;DHT22;38366;53.176;6.540;2023-03-14T01:53:32;10.60;99.90
52451;DHT22;38366;53.176;6.540;2023-03-14T01:55:57;10.60;99.90
52451;DHT22;38366;53.176;6.540;2023-03-14T01:58:24;10.40;99.90
52451;DHT22;38366;53.176;6.540;2023-03-14T02:00:53;10.50;99.90
52451;DHT22;38366;53.176;6.540;2023-03-14T02:03:18;10.40;99.90
52451;DHT22;38366;53.176;6.540;2023-03-14T02:05:46;10.40;99.90
52451;DHT22;38366;53.176;6.540;2023-03-14T02:08:18;10.40;99.90
52451;DHT22;38366;53.176;6.540;2023-03-14T02:10:45;10.40;99.90
52451;DHT22;38366;53.176;6.540;2023-03-14T02:13:11;10.40;99.90
52451;DHT22;38366;53.176;6.540;2023-03-14T02:15:36;10.40;99.90
52451;DHT22;38366;53.176;6.540;2023-03-14T02:18:03;10.30;99.90
52451;DHT22;38366;53.176;6.540;2023-03-14T02:20:34;10.30;99.90
52451;DHT22;38366;53.176;6.540;2023-03-14T02:23:00;10.30;99.90
52451;DHT22;38366;53.176;6.540;2023-03-14T02:27:52;10.20;99.90
52451;DHT22;38366;53.176;6.540;2023-03-14T02:30:19;10.10;99.90
52451;DHT22;38366;53.176;6.540;2023-03-14T02:32:50;10.10;99.90
52451;DHT22;38366;53.176;6.540;2023-03-14T02:35:18;10.10;99.90
52451;DHT22;38366;53.176;6.540;2023-03-14T02:40:20;10.00;99.90
52451;DHT22;38366;53.176;6.540;2023-03-14T02:42:45;10.00;99.90
52451;DHT22;38366;53.176;6.540;2023-03-14T02:47:37;10.00;99.90
52451;DHT22;38366;53.176;6.540;2023-03-14T02:50:17;10.10;99.90
52451;DHT22;38366;53.176;6.540;2023-03-14T02:52:43;10.10;99.90
52451;DHT22;38366;53.176;6.540;2023-03-14T02:55:09;10.00;99.90
52451;DHT22;38366;53.176;6.540;2023-03-14T02:57:35;10.00;99.90
52451;DHT22;38366;53.176;6.540;2023-03-14T03:00:01;9.90;99.90
52451;DHT22;38366;53.176;6.540;2023-03-14T03:02:29;9.90;99.90
52451;DHT22;38366;53.176;6.540;2023-03-14T03:04:54;9.90;99.90
52451;DHT22;38366;53.176;6.540;2023-03-14T03:07:20;9.90;99.90
52451;DHT22;38366;53.176;6.540;2023-03-14T03:09:46;9.80;99.90
52451;DHT22;38366;53.176;6.540;2023-03-14T03:12:11;9.80;99.90
52451;DHT22;38366;53.176;6.540;2023-03-14T03:14:37;9.70;99.90
52451;DHT22;38366;53.176;6.540;2023-03-14T03:17:03;9.60;99.90
52451;DHT22;38366;53.176;6.540;2023-03-14T03:19:29;9.60;99.90
52451;DHT22;38366;53.176;6.540;2023-03-14T03:21:54;9.60;99.90
52451;DHT22;38366;53.176;6.540;2023-03-14T03:24:20;9.50;99.90
52451;DHT22;38366;53.176;6.540;2023-03-14T03:26:45;9.40;99.90
52451;DHT22;38366;53.176;6.540;2023-03-14T03:29:11;9.20;99.90
52451;DHT22;38366;53.176;6.540;2023-03-14T03:31:37;9.30;99.90
52451;DHT22;38366;53.176;6.540;2023-03-14T03:34:03;9.40;99.90
52451;DHT22;38366;53.176;6.540;2023-03-14T03:36:28;9.30;99.90
52451;DHT22;38366;53.176;6.540;2023-03-14T03:38:54;9.30;99.90
52451;DHT22;38366;53.176;6.540;2023-03-14T03:41:20;9.30;99.90
52451;DHT22;38366;53.176;6.540;2023-03-14T03:43:45;9.30;99.90
52451;DHT22;38366;53.176;6.540;2023-03-14T03:46:11;9.30;99.90
52451;DHT22;38366;53.176;6.540;2023-03-14T03:48:37;9.40;99.90
52451;DHT22;38366;53.176;6.540;2023-03-14T03:51:03;9.50;99.90
52451;DHT22;38366;53.176;6.540;2023-03-14T03:53:29;9.40;99.90
52451;DHT22;38366;53.176;6.540;2023-03-14T03:55:54;9.40;99.90
52451;DHT22;38366;53.176;6.540;2023-03-14T03:58:20;9.30;99.90
52451;DHT22;38366;53.176;6.540;2023-03-14T04:00:45;9.30;99.90
52451;DHT22;38366;53.176;6.540;2023-03-14T04:03:11;9.20;99.90
52451;DHT22;38366;53.176;6.540;2023-03-14T04:05:37;9.30;99.90
52451;DHT22;38366;53.176;6.540;2023-03-14T04:08:02;9.30;99.90
52451;DHT22;38366;53.176;6.540;2023-03-14T04:10:29;9.40;99.90
52451;DHT22;38366;53.176;6.540;2023-03-14T04:12:54;9.20;99.90
52451;DHT22;38366;53.176;6.540;2023-03-14T04:15:20;9.30;99.90
52451;DHT22;38366;53.176;6.540;2023-03-14T04:17:45;9.30;99.90
52451;DHT22;38366;53.176;6.540;2023-03-14T04:20:11;9.30;99.90
52451;DHT22;38366;53.176;6.540;2023-03-14T04:22:37;9.30;99.90
52451;DHT22;38366;53.176;6.540;2023-03-14T04:25:03;9.40;99.90
52451;DHT22;38366;53.176;6.540;2023-03-14T04:27:29;9.40;99.90
52451;DHT22;38366;53.176;6.540;2023-03-14T04:29:55;9.40;99.90
52451;DHT22;38366;53.176;6.540;2023-03-14T04:32:20;9.40;99.90
52451;DHT22;38366;53.176;6.540;2023-03-14T04:34:46;9.40;99.90
52451;DHT22;38366;53.176;6.540;2023-03-14T04:37:12;9.30;99.90
52451;DHT22;38366;53.176;6.540;2023-03-14T04:39:37;9.40;99.90
52451;DHT22;38366;53.176;6.540;2023-03-14T04:42:03;9.40;99.90
52451;DHT22;38366;53.176;6.540;2023-03-14T04:44:28;9.30;99.90
52451;DHT22;38366;53.176;6.540;2023-03-14T04:46:54;9.30;99.90
52451;DHT22;38366;53.176;6.540;2023-03-14T04:49:20;9.30;99.90
52451;DHT22;38366;53.176;6.540;2023-03-14T04:51:45;9.30;99.90
52451;DHT22;38366;53.176;6.540;2023-03-14T04:54:11;9.30;99.90
52451;DHT22;38366;53.176;6.540;2023-03-14T04:56:36;9.30;99.90
52451;DHT22;38366;53.176;6.540;2023-03-14T04:59:02;9.30;99.90
52451;DHT22;38366;53.176;6.540;2023-03-14T05:01:28;9.30;99.90
52451;DHT22;38366;53.176;6.540;2023-03-14T05:03:54;9.30;99.90
52451;DHT22;38366;53.176;6.540;2023-03-14T05:06:19;9.30;99.90
52451;DHT22;38366;53.176;6.540;2023-03-14T05:08:45;9.30;99.90
52451;DHT22;38366;53.176;6.540;2023-03-14T05:11:11;9.30;99.90
52451;DHT22;38366;53.176;6.540;2023-03-14T05:13:37;9.30;99.90
52451;DHT22;38366;53.176;6.540;2023-03-14T05:16:06;9.20;99.90
52451;DHT22;38366;53.176;6.540;2023-03-14T05:18:32;9.10;99.90
52451;DHT22;38366;53.176;6.540;2023-03-14T05:20:58;9.20;99.90
52451;DHT22;38366;53.176;6.540;2023-03-14T05:23:24;9.10;99.90
52451;DHT22;38366;53.176;6.540;2023-03-14T05:25:49;9.10;99.90
52451;DHT22;38366;53.176;6.540;2023-03-14T05:28:15;9.00;99.90
52451;DHT22;38366;53.176;6.540;2023-03-14T05:30:40;9.00;99.90
52451;DHT22;38366;53.176;6.540;2023-03-14T05:33:06;8.90;99.90
52451;DHT22;38366;53.176;6.540;2023-03-14T05:35:32;8.80;99.90
52451;DHT22;38366;53.176;6.540;2023-03-14T05:37:57;8.80;99.90
52451;DHT22;38366;53.176;6.540;2023-03-14T05:40:23;8.70;99.90
52451;DHT22;38366;53.176;6.540;2023-03-14T05:42:48;8.70;99.90
52451;DHT22;38366;53.176;6.540;2023-03-14T05:45:14;8.70;99.90
52451;DHT22;38366;53.176;6.540;2023-03-14T05:47:40;8.60;99.90
52451;DHT22;38366;53.176;6.540;2023-03-14T05:50:05;8.70;99.90
52451;DHT22;38366;53.176;6.540;2023-03-14T05:52:31;8.60;99.90
52451;DHT22;38366;53.176;6.540;2023-03-14T05:54:56;8.60;99.90
52451;DHT22;38366;53.176;6.540;2023-03-14T05:57:22;8.60;99.90
52451;DHT22;38366;53.176;6.540;2023-03-14T05:59:48;8.70;99.90
52451;DHT22;38366;53.176;6.540;2023-03-14T06:02:13;8.70;99.90
52451;DHT22;38366;53.176;6.540;2023-03-14T06:04:39;8.70;99.90
52451;DHT22;38366;53.176;6.540;2023-03-14T06:07:04;8.60;99.90
52451;DHT22;38366;53.176;6.540;2023-03-14T06:09:30;8.60;99.90
52451;DHT22;38366;53.176;6.540;2023-03-14T06:11:55;8.60;99.90
52451;DHT22;38366;53.176;6.540;2023-03-14T06:14:21;8.60;99.90
52451;DHT22;38366;53.176;6.540;2023-03-14T06:16:47;8.60;99.90
52451;DHT22;38366;53.176;6.540;2023-03-14T06:19:14;8.60;99.90
52451;DHT22;38366;53.176;6.540;2023-03-14T06:21:40;8.60;99.90
52451;DHT22;38366;53.176;6.540;2023-03-14T06:24:05;8.60;99.90
52451;DHT22;38366;53.176;6.540;2023-03-14T06:26:31;8.60;99.90
52451;DHT22;38366;53.176;6.540;2023-03-14T06:28:56;8.60;99.90
52451;DHT22;38366;53.176;6.540;2023-03-14T06:31:22;8.60;99.90
52451;DHT22;38366;53.176;6.540;2023-03-14T06:33:47;8.60;99.90
52451;DHT22;38366;53.176;6.540;2023-03-14T06:36:13;8.20;99.90
52451;DHT22;38366;53.176;6.540;2023-03-14T06:38:39;7.60;99.90
52451;DHT22;38366;53.176;6.540;2023-03-14T06:41:05;7.40;99.90
52451;DHT22;38366;53.176;6.540;2023-03-14T06:43:30;7.20;99.90
52451;DHT22;38366;53.176;6.540;2023-03-14T06:45:56;7.10;99.90
52451;DHT22;38366;53.176;6.540;2023-03-14T06:48:21;7.00;99.90
52451;DHT22;38366;53.176;6.540;2023-03-14T06:50:47;6.80;99.90
52451;DHT22;38366;53.176;6.540;2023-03-14T06:53:13;6.60;99.90
52451;DHT22;38366;53.176;6.540;2023-03-14T06:55:38;6.50;99.90
52451;DHT22;38366;53.176;6.540;2023-03-14T06:58:04;6.30;99.90
52451;DHT22;38366;53.176;6.540;2023-03-14T07:00:32;6.20;99.90
52451;DHT22;38366;53.176;6.540;2023-03-14T07:02:57;5.90;99.90
52451;DHT22;38366;53.176;6.540;2023-03-14T07:05:23;5.80;99.90
52451;DHT22;38366;53.176;6.540;2023-03-14T07:07:48;5.70;99.90
52451;DHT22;38366;53.176;6.540;2023-03-14T07:10:14;5.60;99.90
52451;DHT22;38366;53.176;6.540;2023-03-14T07:12:40;5.50;99.90
52451;DHT22;38366;53.176;6.540;2023-03-14T07:15:05;5.40;99.90
52451;DHT22;38366;53.176;6.540;2023-03-14T07:17:31;5.30;99.90
52451;DHT22;38366;53.176;6.540;2023-03-14T07:19:57;5.20;99.90
52451;DHT22;38366;53.176;6.540;2023-03-14T07:22:22;5.00;99.90
52451;DHT22;38366;53.176;6.540;2023-03-14T07:24:48;4.90;99.90
52451;DHT22;38366;53.176;6.540;2023-03-14T07:27:13;4.80;99.90
52451;DHT22;38366;53.176;6.540;2023-03-14T07:29:39;4.80;99.90
52451;DHT22;38366;53.176;6.540;2023-03-14T07:32:04;4.70;99.90
52451;DHT22;38366;53.176;6.540;2023-03-14T07:34:30;5.00;99.90
52451;DHT22;38366;53.176;6.540;2023-03-14T07:36:55;4.60;99.90
52451;DHT22;38366;53.176;6.540;2023-03-14T07:39:21;4.60;99.90
52451;DHT22;38366;53.176;6.540;2023-03-14T07:41:47;4.60;99.90
52451;DHT22;38366;53.176;6.540;2023-03-14T07:44:12;5.00;99.90
52451;DHT22;38366;53.176;6.540;2023-03-14T07:46:38;5.00;99.90
52451;DHT22;38366;53.176;6.540;2023-03-14T07:49:03;5.00;99.90
52451;DHT22;38366;53.176;6.540;2023-03-14T07:51:29;4.70;99.90
52451;DHT22;38366;53.176;6.540;2023-03-14T07:53:54;4.70;99.90
52451;DHT22;38366;53.176;6.540;2023-03-14T07:56:20;4.70;99.90
52451;DHT22;38366;53.176;6.540;2023-03-14T07:58:46;4.70;99.90
52451;DHT22;38366;53.176;6.540;2023-03-14T08:01:11;4.70;99.90
52451;DHT22;38366;53.176;6.540;2023-03-14T08:03:37;4.60;99.90
52451;DHT22;38366;53.176;6.540;2023-03-14T08:06:02;4.60;99.90
52451;DHT22;38366;53.176;6.540;2023-03-14T08:08:28;4.70;99.90
52451;DHT22;38366;53.176;6.540;2023-03-14T08:10:54;4.80;99.90
52451;DHT22;38366;53.176;6.540;2023-03-14T08:13:19;4.80;99.90
52451;DHT22;38366;53.176;6.540;2023-03-14T08:15:49;4.90;99.90
52451;DHT22;38366;53.176;6.540;2023-03-14T08:18:16;4.90;99.90
52451;DHT22;38366;53.176;6.540;2023-03-14T08:20:41;4.90;99.90
52451;DHT22;38366;53.176;6.540;2023-03-14T08:23:07;5.00;99.90
52451;DHT22;38366;53.176;6.540;2023-03-14T08:25:33;5.10;99.90
52451;DHT22;38366;53.176;6.540;2023-03-14T08:27:59;5.10;99.90
52451;DHT22;38366;53.176;6.540;2023-03-14T08:30:25;5.20;99.90
52451;DHT22;38366;53.176;6.540;2023-03-14T08:32:50;5.20;99.90
52451;DHT22;38366;53.176;6.540;2023-03-14T08:35:16;5.30;99.90
52451;DHT22;38366;53.176;6.540;2023-03-14T08:37:41;5.40;99.90
52451;DHT22;38366;53.176;6.540;2023-03-14T08:40:07;5.50;99.90
52451;DHT22;38366;53.176;6.540;2023-03-14T08:42:38;5.50;99.90
52451;DHT22;38366;53.176;6.540;2023-03-14T08:45:04;5.70;99.90
52451;DHT22;38366;53.176;6.540;2023-03-14T08:47:30;5.90;99.90
52451;DHT22;38366;53.176;6.540;2023-03-14T08:49:55;6.00;99.90
52451;DHT22;38366;53.176;6.540;2023-03-14T08:52:21;6.20;99.90
52451;DHT22;38366;53.176;6.540;2023-03-14T08:54:47;6.10;99.90
52451;DHT22;38366;53.176;6.540;2023-03-14T08:57:12;6.10;99.90
52451;DHT22;38366;53.176;6.540;2023-03-14T08:59:38;6.20;99.90
52451;DHT22;38366;53.176;6.540;2023-03-14T09:02:03;6.30;99.90
52451;DHT22;38366;53.176;6.540;2023-03-14T09:04:29;6.40;99.90
52451;DHT22;38366;53.176;6.540;2023-03-14T09:06:55;6.50;99.90
52451;DHT22;38366;53.176;6.540;2023-03-14T09:09:23;6.70;99.90
52451;DHT22;38366;53.176;6.540;2023-03-14T09:11:49;7.10;99.90
52451;DHT22;38366;53.176;6.540;2023-03-14T09:14:15;7.30;99.90
52451;DHT22;38366;53.176;6.540;2023-03-14T09:16:40;7.70;99.90
52451;DHT22;38366;53.176;6.540;2023-03-14T09:19:06;8.00;99.90
52451;DHT22;38366;53.176;6.540;2023-03-14T09:21:31;8.10;99.90
52451;DHT22;38366;53.176;6.540;2023-03-14T09:23:57;7.90;99.90
52451;DHT22;38366;53.176;6.540;2023-03-14T09:26:23;7.90;99.90
52451;DHT22;38366;53.176;6.540;2023-03-14T09:28:48;7.70;99.90
52451;DHT22;38366;53.176;6.540;2023-03-14T09:31:14;7.40;99.90
52451;DHT22;38366;53.176;6.540;2023-03-14T09:33:40;7.40;99.90
52451;DHT22;38366;53.176;6.540;2023-03-14T09:36:05;7.30;99.90
52451;DHT22;38366;53.176;6.540;2023-03-14T09:38:32;7.20;99.90
52451;DHT22;38366;53.176;6.540;2023-03-14T09:40:59;7.20;99.90
52451;DHT22;38366;53.176;6.540;2023-03-14T09:43:25;7.10;99.90
52451;DHT22;38366;53.176;6.540;2023-03-14T09:45:52;7.00;99.90
52451;DHT22;38366;53.176;6.540;2023-03-14T09:48:21;6.90;99.90
52451;DHT22;38366;53.176;6.540;2023-03-14T09:50:49;6.90;99.90
52451;DHT22;38366;53.176;6.540;2023-03-14T09:53:23;7.00;99.90
52451;DHT22;38366;53.176;6.540;2023-03-14T09:55:50;7.00;99.90
52451;DHT22;38366;53.176;6.540;2023-03-14T09:58:16;7.00;99.90
52451;DHT22;38366;53.176;6.540;2023-03-14T10:00:43;7.00;99.90
52451;DHT22;38366;53.176;6.540;2023-03-14T10:05:38;7.00;99.90
52451;DHT22;38366;53.176;6.540;2023-03-14T10:08:03;7.00;99.90
52451;DHT22;38366;53.176;6.540;2023-03-14T10:10:30;6.90;99.90
52451;DHT22;38366;53.176;6.540;2023-03-14T10:12:59;6.80;99.90
52451;DHT22;38366;53.176;6.540;2023-03-14T10:15:31;6.80;99.90
52451;DHT22;38366;53.176;6.540;2023-03-14T10:17:59;6.80;99.90
52451;DHT22;38366;53.176;6.540;2023-03-14T10:22:52;6.90;99.90
52451;DHT22;38366;53.176;6.540;2023-03-14T10:25:31;7.10;99.90
52451;DHT22;38366;53.176;6.540;2023-03-14T10:27:57;7.30;99.90
52451;DHT22;38366;53.176;6.540;2023-03-14T10:32:59;7.80;99.90
52451;DHT22;38366;53.176;6.540;2023-03-14T10:35:32;8.10;99.90
52451;DHT22;38366;53.176;6.540;2023-03-14T10:38:02;8.10;99.90
52451;DHT22;38366;53.176;6.540;2023-03-14T10:40:30;8.30;99.90
52451;DHT22;38366;53.176;6.540;2023-03-14T10:42:57;8.20;99.90
52451;DHT22;38366;53.176;6.540;2023-03-14T10:45:36;8.10;99.90
52451;DHT22;38366;53.176;6.540;2023-03-14T10:48:13;8.00;99.90
52451;DHT22;38366;53.176;6.540;2023-03-14T10:53:20;8.80;99.90
52451;DHT22;38366;53.176;6.540;2023-03-14T10:55:46;9.30;99.90
52451;DHT22;38366;53.176;6.540;2023-03-14T11:03:28;8.40;99.90
52451;DHT22;38366;53.176;6.540;2023-03-14T11:05:56;8.90;99.90
52451;DHT22;38366;53.176;6.540;2023-03-14T11:08:27;8.90;99.90
52451;DHT22;38366;53.176;6.540;2023-03-14T11:13:52;8.50;99.90
52451;DHT22;38366;53.176;6.540;2023-03-14T11:16:23;8.60;99.90
52451;DHT22;38366;53.176;6.540;2023-03-14T11:24:05;9.40;99.90
52451;DHT22;38366;53.176;6.540;2023-03-14T11:26:48;8.70;99.90
52451;DHT22;38366;53.176;6.540;2023-03-14T11:31:50;8.30;99.90
52451;DHT22;38366;53.176;6.540;2023-03-14T11:34:23;8.80;99.90
52451;DHT22;38366;53.176;6.540;2023-03-14T11:36:53;9.60;99.90
52451;DHT22;38366;53.176;6.540;2023-03-14T11:39:21;9.80;98.40
52451;DHT22;38366;53.176;6.540;2023-03-14T11:41:52;9.60;99.70
52451;DHT22;38366;53.176;6.540;2023-03-14T11:44:19;9.70;99.30
52451;DHT22;38366;53.176;6.540;2023-03-14T11:46:55;10.30;99.90
52451;DHT22;38366;53.176;6.540;2023-03-14T11:51:51;11.20;98.40
52451;DHT22;38366;53.176;6.540;2023-03-14T11:54:19;11.60;97.30
52451;DHT22;38366;53.176;6.540;2023-03-14T11:56:51;11.70;98.10
52451;DHT22;38366;53.176;6.540;2023-03-14T11:59:20;11.70;97.10
52451;DHT22;38366;53.176;6.540;2023-03-14T12:02:09;12.40;97.70
52451;DHT22;38366;53.176;6.540;2023-03-14T12:07:23;13.00;96.50
52451;DHT22;38366;53.176;6.540;2023-03-14T12:09:51;12.60;96.00
52451;DHT22;38366;53.176;6.540;2023-03-14T12:12:21;11.50;96.20
52451;DHT22;38366;53.176;6.540;2023-03-14T12:15:05;10.80;97.30
52451;DHT22;38366;53.176;6.540;2023-03-14T12:17:40;10.40;97.50
52451;DHT22;38366;53.176;6.540;2023-03-14T12:20:15;10.30;96.60
52451;DHT22;38366;53.176;6.540;2023-03-14T12:23:02;10.40;97.00
52451;DHT22;38366;53.176;6.540;2023-03-14T12:25:27;10.60;98.20
52451;DHT22;38366;53.176;6.540;2023-03-14T12:41:03;10.20;99.10
52451;DHT22;38366;53.176;6.540;2023-03-14T12:43:31;10.00;99.90
52451;DHT22;38366;53.176;6.540;2023-03-14T12:48:33;9.50;99.90
52451;DHT22;38366;53.176;6.540;2023-03-14T12:51:02;9.10;99.90
52451;DHT22;38366;53.176;6.540;2023-03-14T12:53:49;9.30;99.90
52451;DHT22;38366;53.176;6.540;2023-03-14T13:01:26;9.10;99.90
52451;DHT22;38366;53.176;6.540;2023-03-14T13:03:53;8.60;99.90
52451;DHT22;38366;53.176;6.540;2023-03-14T13:11:48;8.70;99.90
52451;DHT22;38366;53.176;6.540;2023-03-14T13:14:14;8.70;99.60
52451;DHT22;38366;53.176;6.540;2023-03-14T13:16:40;9.10;97.90
52451;DHT22;38366;53.176;6.540;2023-03-14T13:22:23;10.60;96.90
52451;DHT22;38366;53.176;6.540;2023-03-14T13:24:50;11.50;96.20
52451;DHT22;38366;53.176;6.540;2023-03-14T13:27:19;11.60;95.90
52451;DHT22;38366;53.176;6.540;2023-03-14T13:29:48;11.40;96.20
52451;DHT22;38366;53.176;6.540;2023-03-14T13:32:19;10.80;96.80
52451;DHT22;38366;53.176;6.540;2023-03-14T13:34:45;10.40;95.60
52451;DHT22;38366;53.176;6.540;2023-03-14T13:37:20;10.20;95.40
52451;DHT22;38366;53.176;6.540;2023-03-14T13:39:50;9.80;95.80
52451;DHT22;38366;53.176;6.540;2023-03-14T13:42:16;9.50;97.40
52451;DHT22;38366;53.176;6.540;2023-03-14T13:44:42;9.50;98.80
52451;DHT22;38366;53.176;6.540;2023-03-14T13:47:18;9.30;98.80
52451;DHT22;38366;53.176;6.540;2023-03-14T13:49:44;9.30;98.00
52451;DHT22;38366;53.176;6.540;2023-03-14T13:52:23;9.00;97.90
52451;DHT22;38366;53.176;6.540;2023-03-14T13:54:56;8.80;98.50
52451;DHT22;38366;53.176;6.540;2023-03-14T13:57:22;8.80;99.80
52451;DHT22;38366;53.176;6.540;2023-03-14T14:02:26;8.90;99.70
52451;DHT22;38366;53.176;6.540;2023-03-14T14:04:52;9.10;98.40
52451;DHT22;38366;53.176;6.540;2023-03-14T14:07:18;9.10;98.60
52451;DHT22;38366;53.176;6.540;2023-03-14T14:09:47;9.20;98.80
52451;DHT22;38366;53.176;6.540;2023-03-14T14:12:18;9.20;98.30
52451;DHT22;38366;53.176;6.540;2023-03-14T14:17:20;8.90;98.30
52451;DHT22;38366;53.176;6.540;2023-03-14T14:19:46;8.80;97.70
52451;DHT22;38366;53.176;6.540;2023-03-14T14:22:12;8.70;97.10
52451;DHT22;38366;53.176;6.540;2023-03-14T14:24:38;8.60;96.60
52451;DHT22;38366;53.176;6.540;2023-03-14T14:29:33;8.40;98.80
52451;DHT22;38366;53.176;6.540;2023-03-14T14:31:59;8.20;99.50
52451;DHT22;38366;53.176;6.540;2023-03-14T14:34:25;8.10;99.90
52451;DHT22;38366;53.176;6.540;2023-03-14T14:36:52;8.00;99.90
52451;DHT22;38366;53.176;6.540;2023-03-14T14:41:44;8.00;99.90
52451;DHT22;38366;53.176;6.540;2023-03-14T14:44:12;8.00;99.90
52451;DHT22;38366;53.176;6.540;2023-03-14T14:46:39;8.10;99.90
52451;DHT22;38366;53.176;6.540;2023-03-14T14:49:15;8.40;99.90
52451;DHT22;38366;53.176;6.540;2023-03-14T14:51:45;8.40;99.90
52451;DHT22;38366;53.176;6.540;2023-03-14T14:54:16;8.30;99.90
52451;DHT22;38366;53.176;6.540;2023-03-14T14:56:49;8.30;99.90
52451;DHT22;38366;53.176;6.540;2023-03-14T14:59:25;8.80;99.90
52451;DHT22;38366;53.176;6.540;2023-03-14T15:01:59;8.20;99.40
52451;DHT22;38366;53.176;6.540;2023-03-14T15:04:25;8.00;98.10
52451;DHT22;38366;53.176;6.540;2023-03-14T15:06:51;7.90;99.20
52451;DHT22;38366;53.176;6.540;2023-03-14T15:09:18;7.80;98.90
52451;DHT22;38366;53.176;6.540;2023-03-14T15:11:43;7.80;99.80
52451;DHT22;38366;53.176;6.540;2023-03-14T15:14:09;7.90;99.90
52451;DHT22;38366;53.176;6.540;2023-03-14T15:16:35;7.80;99.10
52451;DHT22;38366;53.176;6.540;2023-03-14T15:19:02;7.60;98.60
52451;DHT22;38366;53.176;6.540;2023-03-14T15:21:30;7.50;99.90
52451;DHT22;38366;53.176;6.540;2023-03-14T15:23:56;7.40;99.90
52451;DHT22;38366;53.176;6.540;2023-03-14T15:26:23;7.30;99.90
52451;DHT22;38366;53.176;6.540;2023-03-14T15:28:49;7.20;99.90
52451;DHT22;38366;53.176;6.540;2023-03-14T15:31:15;7.30;99.90
52451;DHT22;38366;53.176;6.540;2023-03-14T15:33:42;7.20;99.90
52451;DHT22;38366;53.176;6.540;2023-03-14T15:36:16;7.30;99.90
52451;DHT22;38366;53.176;6.540;2023-03-14T15:38:44;7.30;99.90
52451;DHT22;38366;53.176;6.540;2023-03-14T15:41:09;7.20;99.90
52451;DHT22;38366;53.176;6.540;2023-03-14T15:43:35;7.20;99.90
52451;DHT22;38366;53.176;6.540;2023-03-14T15:46:00;7.10;99.90
52451;DHT22;38366;53.176;6.540;2023-03-14T15:48:26;7.20;99.90
52451;DHT22;38366;53.176;6.540;2023-03-14T15:50:51;7.20;99.90
52451;DHT22;38366;53.176;6.540;2023-03-14T15:53:17;7.20;99.90
52451;DHT22;38366;53.176;6.540;2023-03-14T15:55:43;7.20;99.90
52451;DHT22;38366;53.176;6.540;2023-03-14T15:58:10;7.20;99.90
52451;DHT22;38366;53.176;6.540;2023-03-14T16:00:40;7.20;99.90
52451;DHT22;38366;53.176;6.540;2023-03-14T16:03:05;7.20;99.90
52451;DHT22;38366;53.176;6.540;2023-03-14T16:05:31;7.10;99.90
52451;DHT22;38366;53.176;6.540;2023-03-14T16:07:56;7.00;99.90
52451;DHT22;38366;53.176;6.540;2023-03-14T16:10:22;6.90;99.90
52451;DHT22;38366;53.176;6.540;2023-03-14T16:12:48;6.80;99.90
52451;DHT22;38366;53.176;6.540;2023-03-14T16:15:13;6.70;99.90
52451;DHT22;38366;53.176;6.540;2023-03-14T16:17:39;6.70;99.90
52451;DHT22;38366;53.176;6.540;2023-03-14T16:20:07;6.60;99.90
52451;DHT22;38366;53.176;6.540;2023-03-14T16:22:33;6.60;99.90
52451;DHT22;38366;53.176;6.540;2023-03-14T16:25:04;6.60;99.90
52451;DHT22;38366;53.176;6.540;2023-03-14T16:27:30;6.50;99.90
52451;DHT22;38366;53.176;6.540;2023-03-14T16:29:56;6.50;99.90
52451;DHT22;38366;53.176;6.540;2023-03-14T16:32:22;6.40;99.90
52451;DHT22;38366;53.176;6.540;2023-03-14T16:34:48;6.20;99.90
52451;DHT22;38366;53.176;6.540;2023-03-14T16:37:14;6.10;99.90
52451;DHT22;38366;53.176;6.540;2023-03-14T16:39:39;6.00;99.90
52451;DHT22;38366;53.176;6.540;2023-03-14T16:42:05;6.00;99.90
52451;DHT22;38366;53.176;6.540;2023-03-14T16:44:30;6.10;99.90
52451;DHT22;38366;53.176;6.540;2023-03-14T16:46:56;6.20;99.90
52451;DHT22;38366;53.176;6.540;2023-03-14T16:49:21;6.20;99.90
52451;DHT22;38366;53.176;6.540;2023-03-14T16:51:47;6.10;99.90
52451;DHT22;38366;53.176;6.540;2023-03-14T16:54:13;6.10;99.90
52451;DHT22;38366;53.176;6.540;2023-03-14T16:56:38;6.10;99.90
52451;DHT22;38366;53.176;6.540;2023-03-14T16:59:04;6.10;99.90
52451;DHT22;38366;53.176;6.540;2023-03-14T17:01:29;6.00;99.90